Track Гладилин Дмитрий

Time Latitude Longitude Accuracy (66% radius in meters) Altitude (meters) Speed (km/hour) Bearing (degrees) Battery (%) GPS flag
08:38:17 55.921096 37.361967 6 181.56812517242 1.1700541973114 329.78399658203 77 1 delete
08:38:11 55.921047 37.362021 8 182.01220034473 1.2203466892242 303.42489624023 77 1 delete
08:38:09 55.921023 37.362095 8 182.43834594734 1.3021538257599 287.01226806641 77 1 delete
08:38:02 55.921014 37.362190 16 184.55121039195 1.4803291559219 111.37769317627 77 1 delete
08:37:53 55.921040 37.362123 8 186.17753747756 1.8556492328644 116.77336883545 77 1 delete
08:37:29 55.921047 37.362038 6 189.40095276919 1.9015341997147 316.87481689453 77 1 delete
08:37:20 55.920920 37.362016 6 189.40829450163 4.7925190925598 44.272884368896 77 1 delete
08:37:18 55.920865 37.361909 6 188.1052712382 5.5820007324219 42.180957794189 77 1 delete
08:37:17 55.920830 37.361846 6 187.13207849521 6.0754971504211 43.16561126709 77 1 delete
08:37:16 55.920790 37.361772 6 186.34558903153 5.3795852661133 57.612148284912 77 1 delete
08:37:14 55.920733 37.361637 6 184.88375390985 5.3357830047607 54.748126983643 77 1 delete
08:37:13 55.920700 37.361554 6 184.39472108228 6.4782900810242 53.431667327881 77 1 delete
08:37:12 55.920668 37.361475 6 184.22895548078 6.7295889854431 56.231842041016 77 1 delete
08:37:10 55.920613 37.361311 6 183.49101017057 5.5905046463013 58.797710418701 77 1 delete
08:37:09 55.920584 37.361222 6 182.48007445703 6.042715549469 55.351619720459 77 1 delete
08:37:08 55.920552 37.361140 6 182.09805204404 5.7904448509216 51.552989959717 77 1 delete
08:37:06 55.920496 37.361033 6 182.39524160165 4.8092889785767 24.677785873413 77 1 delete
08:37:04 55.920422 37.360987 6 182.22308875149 4.5623536109924 356.4970703125 77 1 delete
08:37:03 55.920370 37.361004 6 181.85278460438 6.3444490432739 354.04174804688 77 1 delete
08:37:02 55.920299 37.361027 6 181.7272113181 6.2625637054443 357.63729858398 77 1 delete
08:37:01 55.920202 37.361035 6 182.03665866867 6.6858849525452 0.26094889640808 77 1 delete
08:37:00 55.920105 37.361037 8 182.8839801077 6.4752316474915 1.6140676736832 77 1 delete
08:36:59 55.920017 37.361028 8 183.82533189174 6.2785339355469 2.1023197174072 77 1 delete
08:36:58 55.919929 37.361022 8 184.81638173113 5.5396695137024 2.7482805252075 77 1 delete
08:36:57 55.919837 37.361015 8 184.94994422941 5.3201303482056 1.9161884784698 77 1 delete
08:36:56 55.919767 37.361004 6 185.37913649203 4.5830082893372 1.4066833257675 77 1 delete
08:36:54 55.919709 37.360968 6 184.85150319225 2.6084642410278 35.299076080322 77 1 delete
08:36:52 55.919666 37.360895 6 184.78690750807 2.4146518707275 37.903045654297 77 1 delete
08:36:50 55.919607 37.360830 6 184.58131540915 4.340763092041 21.6325340271 77 1 delete
08:36:49 55.919553 37.360788 6 182.68846790615 4.6181516647339 25.585824966431 77 1 delete
08:36:48 55.919502 37.360736 8 180.82109199431 3.0526597499847 25.512588500977 77 1 delete
08:36:46 55.919444 37.360678 8 180.51632003132 3.0417509078979 25.875999450684 77 1 delete
08:36:44 55.919394 37.360597 6 180.0656738698 3.4149293899536 43.239280700684 77 1 delete
08:36:42 55.919347 37.360474 6 179.65990289085 3.6852011680603 46.670932769775 77 1 delete
08:36:40 55.919311 37.360382 6 179.54730289623 3.7992594242096 68.452011108398 77 1 delete
08:36:38 55.919298 37.360294 6 179.39828840845 4.1363849639893 71.991737365723 77 1 delete
08:36:37 55.919286 37.360214 6 179.33309232758 4.1977577209473 72.816223144531 77 1 delete
08:36:35 55.919260 37.360083 6 179.2346095717 4.5056185722351 66.442657470703 77 1 delete
08:36:34 55.919241 37.359995 6 179.45028504929 4.2138085365295 67.648315429688 77 1 delete
08:36:33 55.919222 37.359896 6 179.55116921626 4.1283612251282 66.084182739258 77 1 delete
08:36:31 55.919187 37.359754 6 179.51022671736 4.5233659744263 63.972541809082 77 1 delete
08:36:30 55.919166 37.359683 4 179.39755584865 5.0045666694641 61.302001953125 77 1 delete
08:36:29 55.919142 37.359602 4 178.84311172852 4.7982420921326 60.062442779541 77 1 delete
08:36:28 55.919111 37.359512 4 179.09327885371 4.2531523704529 59.184188842773 77 1 delete
08:36:27 55.919089 37.359442 4 179.49692911666 5.0354766845703 58.135799407959 77 1 delete
08:36:26 55.919064 37.359372 4 179.51204228776 4.8222546577454 58.410255432129 77 1 delete
08:36:25 55.919040 37.359296 6 179.73804256809 5.379237651825 59.548240661621 77 1 delete
08:36:24 55.919017 37.359211 6 179.76229048567 4.4605560302734 60.536205291748 77 1 delete
08:36:23 55.918985 37.359121 6 178.97849825469 4.043071269989 47.531253814697 77 1 delete
08:36:21 55.918926 37.359005 6 178.82295993858 4.695200920105 49.361225128174 77 1 delete